Time;durP1;ratioP1;P1;durP2;ratioP2;P2;SDS_P1;SDS_P2;PMS_P1;PMS_P2;Temp;Humidity;BMP_temperature;BMP_pressure;BME280_temperature;BME280_humidity;BME280_pressure;Samples;Min_cycle;Max_cycle;Signal;HPM_P1;HPM_P2
2023/10/03 00:00:28;;;;;;;33.75;16.15;;;;;;;16.83;100.00;101080.09;6285841;22;20087;-87
2023/10/03 00:02:55;;;;;;;35.88;16.27;;;;;;;16.87;100.00;101064.50;6284860;22;20083;-86
2023/10/03 00:05:26;;;;;;;30.80;15.55;;;;;;;16.87;100.00;101049.09;6284639;22;20012;-88
2023/10/03 00:07:56;;;;;;;35.25;16.27;;;;;;;16.88;100.00;101053.28;6284073;22;20020;-86
2023/10/03 00:10:23;;;;;;;34.85;17.63;;;;;;;16.92;100.00;101040.34;6285154;22;20084;-87
2023/10/03 00:12:51;;;;;;;36.85;16.23;;;;;;;16.93;100.00;101028.38;6287230;22;20019;-87
2023/10/03 00:15:26;;;;;;;30.30;15.73;;;;;;;16.95;100.00;101019.84;6281766;22;20051;-86
2023/10/03 00:17:53;;;;;;;35.83;16.70;;;;;;;16.97;100.00;101030.88;6280271;22;20035;-87
2023/10/03 00:20:22;;;;;;;29.42;15.40;;;;;;;16.97;100.00;101020.84;6281660;22;20074;-87
2023/10/03 00:22:50;;;;;;;36.13;16.83;;;;;;;16.97;100.00;101012.03;6281101;22;20020;-87
2023/10/03 00:25:19;;;;;;;31.35;16.10;;;;;;;16.98;100.00;101011.56;6281788;22;20027;-86
2023/10/03 00:27:46;;;;;;;35.80;16.55;;;;;;;16.98;100.00;101003.50;6282991;22;20402;-86
2023/10/03 00:30:14;;;;;;;31.90;16.40;;;;;;;16.99;100.00;101007.66;6282007;22;20020;-87
2023/10/03 00:32:42;;;;;;;39.90;16.80;;;;;;;16.97;100.00;101006.66;6281867;22;20017;-87
2023/10/03 00:35:10;;;;;;;35.95;16.20;;;;;;;16.96;100.00;100995.16;6282078;22;20016;-87
2023/10/03 00:37:39;;;;;;;35.55;16.75;;;;;;;16.93;100.00;100987.31;6281913;22;20012;-86
2023/10/03 00:40:27;;;;;;;35.10;16.52;;;;;;;16.92;100.00;100983.88;6280444;22;20047;-85
2023/10/03 00:42:57;;;;;;;36.22;16.90;;;;;;;16.93;100.00;100985.38;6282164;22;20014;-84
2023/10/03 00:45:30;;;;;;;40.10;16.75;;;;;;;16.93;100.00;100980.00;6281044;22;20390;-86
2023/10/03 00:48:01;;;;;;;36.08;17.05;;;;;;;16.92;100.00;100975.09;6282523;22;20059;-86
2023/10/03 00:50:31;;;;;;;32.90;16.23;;;;;;;16.91;100.00;100955.53;6280469;22;20023;-84
2023/10/03 00:53:08;;;;;;;37.67;17.38;;;;;;;16.90;100.00;100954.06;6281220;22;20043;-86
2023/10/03 00:55:38;;;;;;;34.60;16.52;;;;;;;16.89;100.00;100944.50;6280477;22;20474;-84
2023/10/03 00:58:07;;;;;;;39.67;16.77;;;;;;;16.90;100.00;100945.25;6280271;22;20437;-84
2023/10/03 01:00:40;;;;;;;47.25;17.52;;;;;;;16.92;100.00;100937.44;6281203;22;20020;-84
2023/10/03 01:03:36;;;;;;;38.60;17.08;;;;;;;16.93;100.00;100934.28;6283846;22;20421;-84
2023/10/03 01:06:15;;;;;;;34.85;17.63;;;;;;;16.94;100.00;100916.94;6282392;22;20796;-89
2023/10/03 01:08:47;;;;;;;38.83;17.05;;;;;;;16.95;100.00;100925.72;6282060;22;20027;-86
2023/10/03 01:11:15;;;;;;;36.20;16.63;;;;;;;16.95;100.00;100915.72;6283639;22;20012;-87
2023/10/03 01:13:48;;;;;;;38.03;17.27;;;;;;;16.95;100.00;100909.59;6282075;22;20016;-86
2023/10/03 01:16:29;;;;;;;39.17;17.30;;;;;;;16.95;100.00;100907.66;6282932;22;20019;-87
2023/10/03 01:18:59;;;;;;;34.10;17.27;;;;;;;16.96;100.00;100905.69;6284015;22;20020;-86
2023/10/03 01:21:26;;;;;;;40.50;17.65;;;;;;;16.95;100.00;100896.88;6283762;22;20012;-86
2023/10/03 01:23:54;;;;;;;34.22;16.35;;;;;;;16.94;100.00;100892.72;6283548;22;20020;-86
2023/10/03 01:26:22;;;;;;;35.92;17.48;;;;;;;16.96;100.00;100889.56;6283392;22;20100;-88
2023/10/03 01:28:48;;;;;;;34.50;15.43;;;;;;;16.97;100.00;100869.53;6283718;22;20393;-86
2023/10/03 01:31:15;;;;;;;46.03;16.63;;;;;;;16.99;100.00;100875.16;6281771;22;20024;-86
2023/10/03 01:33:42;;;;;;;38.53;16.83;;;;;;;16.97;100.00;100878.31;6282548;22;20013;-87
2023/10/03 01:36:10;;;;;;;38.03;17.00;;;;;;;16.96;100.00;100860.72;6281512;22;20016;-86
2023/10/03 01:38:37;;;;;;;33.88;16.40;;;;;;;16.96;100.00;100849.97;6281241;22;20480;-86
2023/10/03 01:41:06;;;;;;;33.08;16.33;;;;;;;16.94;100.00;100852.41;6281881;22;20443;-86
2023/10/03 01:43:33;;;;;;;38.20;16.90;;;;;;;16.92;100.00;100851.41;6282693;22;20012;-88
2023/10/03 01:46:00;;;;;;;35.88;16.85;;;;;;;16.91;100.00;100833.78;6256036;22;20075;-87
2023/10/03 01:48:27;;;;;;;38.72;16.95;;;;;;;16.89;100.00;100833.53;6283159;22;20074;-87
2023/10/03 01:50:53;;;;;;;37.45;16.23;;;;;;;16.85;100.00;100828.38;6282041;22;20016;-87
2023/10/03 01:53:20;;;;;;;35.45;16.52;;;;;;;16.84;100.00;100823.47;6283102;22;20071;-87
2023/10/03 01:55:49;;;;;;;39.95;16.98;;;;;;;16.83;100.00;100822.75;6281765;22;20066;-86
2023/10/03 01:58:15;;;;;;;34.38;16.50;;;;;;;16.85;100.00;100830.34;6280818;22;20062;-86
2023/10/03 02:00:42;;;;;;;42.80;17.30;;;;;;;16.85;100.00;100817.63;6281561;22;20020;-87
2023/10/03 02:03:12;;;;;;;33.53;15.98;;;;;;;16.88;100.00;100827.44;6283714;22;20794;-85
2023/10/03 02:05:43;;;;;;;33.00;16.35;;;;;;;16.86;100.00;100813.00;6282263;22;20016;-88
2023/10/03 02:08:15;;;;;;;36.67;16.23;;;;;;;16.84;100.00;100821.53;6256117;22;20104;-87
2023/10/03 02:10:46;;;;;;;34.13;15.85;;;;;;;16.84;100.00;100818.09;6281100;22;20043;-87
2023/10/03 02:13:17;;;;;;;39.85;17.58;;;;;;;16.84;100.00;100810.03;6281039;22;20012;-87
2023/10/03 02:15:45;;;;;;;;;;;;;;;16.85;100.00;100806.13;6281828;22;20012;-88
2023/10/03 02:18:17;;;;;;;36.58;16.17;;;;;;;16.83;100.00;100808.56;6279344;22;20395;-87
2023/10/03 02:20:59;;;;;;;36.53;16.35;;;;;;;16.83;100.00;100812.00;6279763;22;20397;-86
2023/10/03 02:23:27;;;;;;;42.67;16.98;;;;;;;16.83;100.00;100797.81;6280798;22;20008;-87
2023/10/03 02:26:16;;;;;;;38.45;16.48;;;;;;;16.83;100.00;100801.25;6281457;22;20146;-86
2023/10/03 02:28:43;;;;;;;35.05;15.32;;;;;;;16.85;100.00;100793.44;6279919;22;20055;-86
2023/10/03 02:31:10;;;;;;;32.45;15.18;;;;;;;16.87;100.00;100791.00;6280227;22;20460;-86
2023/10/03 02:33:44;;;;;;;36.45;15.80;;;;;;;16.90;100.00;100778.56;6279213;22;20472;-86
2023/10/03 02:36:11;;;;;;;47.38;16.15;;;;;;;16.94;100.00;100763.66;6281362;22;20461;-89
2023/10/03 02:38:38;;;;;;;36.13;15.77;;;;;;;16.98;100.00;100783.00;6279665;22;20028;-86
2023/10/03 02:41:06;;;;;;;31.63;15.57;;;;;;;17.01;100.00;100792.06;6279342;22;20027;-87
2023/10/03 02:43:47;;;;;;;36.10;15.60;;;;;;;17.03;100.00;100794.25;6279984;22;20082;-86
2023/10/03 02:46:18;;;;;;;33.28;14.80;;;;;;;17.07;100.00;100790.13;6279293;22;20020;-87
2023/10/03 02:48:49;;;;;;;31.45;14.93;;;;;;;17.09;100.00;100789.66;6280329;22;20020;-88
2023/10/03 02:51:15;;;;;;;32.33;14.25;;;;;;;17.12;100.00;100784.03;6279201;22;20074;-87
2023/10/03 02:53:43;;;;;;;39.75;15.13;;;;;;;17.20;100.00;100776.94;6279262;22;20056;-88
2023/10/03 02:56:09;;;;;;;33.38;14.32;;;;;;;17.31;100.00;100773.56;6278607;22;20020;-86
2023/10/03 02:58:36;;;;;;;34.17;14.18;;;;;;;17.34;100.00;100773.34;6279155;22;20463;-86
2023/10/03 03:01:03;;;;;;;26.73;13.43;;;;;;;17.41;100.00;100764.06;6279552;22;20016;-87
2023/10/03 03:03:32;;;;;;;32.17;15.00;;;;;;;17.45;99.17;100769.94;6280671;22;20016;-86
2023/10/03 03:06:09;;;;;;;29.90;13.63;;;;;;;17.46;99.11;100757.97;6279565;22;20016;-86
2023/10/03 03:08:39;;;;;;;31.10;14.48;;;;;;;17.46;99.54;100749.16;6279349;22;20027;-86
2023/10/03 03:11:08;;;;;;;30.33;14.65;;;;;;;17.45;99.41;100759.19;6278504;22;20044;-85
2023/10/03 03:13:36;;;;;;;33.47;14.55;;;;;;;17.46;99.52;100747.19;6280885;22;20017;-87
2023/10/03 03:16:04;;;;;;;27.85;14.18;;;;;;;17.50;99.53;100755.03;6280836;22;20442;-86
2023/10/03 03:18:40;;;;;;;26.85;13.40;;;;;;;17.51;99.12;100746.47;6280018;22;20028;-87
2023/10/03 03:21:10;;;;;;;31.15;13.82;;;;;;;17.52;98.87;100744.53;6279488;22;20043;-87
2023/10/03 03:23:42;;;;;;;28.27;13.40;;;;;;;17.53;99.43;100746.72;6281372;22;20032;-86
2023/10/03 03:26:21;;;;;;;25.70;12.65;;;;;;;17.53;99.35;100738.66;6280599;22;20038;-86
2023/10/03 03:28:50;;;;;;;27.05;13.57;;;;;;;17.55;99.05;100749.66;6281373;22;20031;-87
2023/10/03 03:31:31;;;;;;;31.42;12.75;;;;;;;17.58;99.09;100748.69;6281570;22;20019;-86
2023/10/03 03:34:00;;;;;;;22.95;11.85;;;;;;;17.60;99.45;100742.78;6280053;22;20401;-85
2023/10/03 03:36:34;;;;;;;34.47;12.52;;;;;;;17.65;99.24;100756.28;6280239;22;20012;-86
2023/10/03 03:39:05;;;;;;;29.77;12.27;;;;;;;17.67;99.38;100750.41;6280459;22;20024;-87
2023/10/03 03:41:34;;;;;;;24.15;11.95;;;;;;;17.68;99.32;100762.66;6279344;22;20143;-86
2023/10/03 03:44:01;;;;;;;22.17;10.88;;;;;;;17.68;99.40;100751.91;6279640;22;20017;-86
2023/10/03 03:46:29;;;;;;;24.17;10.80;;;;;;;17.71;99.44;100750.91;6280179;22;20099;-85
2023/10/03 03:48:58;;;;;;;20.85;9.82;;;;;;;17.78;98.49;100761.22;6281262;22;20023;-84
2023/10/03 03:51:25;;;;;;;25.80;10.38;;;;;;;17.83;98.48;100757.78;6280280;22;20215;-86
2023/10/03 03:53:52;;;;;;;21.73;9.73;;;;;;;17.87;98.35;100758.28;6279218;22;20508;-85
2023/10/03 03:56:19;;;;;;;18.95;9.27;;;;;;;17.92;97.57;100764.91;6280067;22;20020;-85
2023/10/03 03:58:48;;;;;;;18.58;9.27;;;;;;;17.93;97.54;100774.44;6279065;22;20028;-87
2023/10/03 04:01:18;;;;;;;16.60;8.13;;;;;;;17.97;97.18;100770.28;6280921;22;20016;-87
2023/10/03 04:03:49;;;;;;;18.67;7.40;;;;;;;18.05;96.60;100778.59;6281245;22;20012;-86
2023/10/03 04:06:18;;;;;;;;;;;;;;;18.11;97.06;100779.31;6279791;22;20021;-86
2023/10/03 04:08:45;;;;;;;14.95;6.72;;;;;;;18.13;95.70;100787.66;6281372;22;19924;-86
2023/10/03 04:11:32;;;;;;;16.48;7.07;;;;;;;18.14;95.03;100791.81;6279839;22;20102;-85
2023/10/03 04:13:59;;;;;;;14.15;6.82;;;;;;;18.13;95.23;100803.09;6283095;22;20016;-85
2023/10/03 04:16:28;;;;;;;15.95;6.13;;;;;;;18.14;94.83;100796.47;6279033;22;20397;-86
2023/10/03 04:18:54;;;;;;;11.98;6.07;;;;;;;18.17;95.00;100801.63;6279282;22;20024;-85
2023/10/03 04:21:26;;;;;;;12.27;5.60;;;;;;;18.17;95.20;100801.63;6278466;22;20024;-86
2023/10/03 04:23:53;;;;;;;17.35;6.40;;;;;;;18.13;95.31;100782.25;6280765;22;20575;-85
2023/10/03 04:26:21;;;;;;;13.65;6.38;;;;;;;18.10;95.38;100804.78;6280030;22;20151;-85
2023/10/03 04:28:48;;;;;;;17.77;6.40;;;;;;;18.06;95.70;100806.25;6279366;22;20366;-85
2023/10/03 04:31:14;;;;;;;12.05;6.57;;;;;;;18.03;96.30;100807.97;6280263;22;20016;-85
2023/10/03 04:33:43;;;;;;;19.05;6.95;;;;;;;18.00;97.05;100807.00;6280248;22;20454;-85
2023/10/03 04:36:10;;;;;;;11.32;6.07;;;;;;;18.02;97.86;100819.22;6280446;22;20460;-84
2023/10/03 04:38:37;;;;;;;13.57;6.30;;;;;;;18.01;98.02;100815.81;6278307;22;20452;-86
2023/10/03 04:41:07;;;;;;;15.18;5.78;;;;;;;18.00;98.67;100817.03;6280574;22;20091;-85
2023/10/03 04:43:34;;;;;;;12.35;5.63;;;;;;;17.96;99.10;100811.91;6280708;22;20012;-83
2023/10/03 04:46:02;;;;;;;23.02;5.88;;;;;;;17.94;99.20;100802.84;6280782;22;20083;-84
2023/10/03 04:48:28;;;;;;;14.52;5.28;;;;;;;17.92;99.99;100808.72;6279864;22;20020;-85
2023/10/03 04:50:56;;;;;;;17.67;5.75;;;;;;;17.90;100.00;100805.03;6280687;22;20481;-85
2023/10/03 04:53:23;;;;;;;11.50;5.53;;;;;;;17.88;100.00;100802.84;6277906;22;20025;-85
2023/10/03 04:55:50;;;;;;;10.80;5.35;;;;;;;17.85;100.00;100811.88;6280654;22;20027;-86
2023/10/03 04:58:17;;;;;;;19.15;5.50;;;;;;;17.81;100.00;100814.09;6252862;22;20039;-84
2023/10/03 05:00:43;;;;;;;17.20;5.53;;;;;;;17.80;100.00;100812.63;6280191;22;20016;-88
2023/10/03 05:03:10;;;;;;;11.40;5.03;;;;;;;17.78;100.00;100814.31;6280118;22;20023;-85
2023/10/03 05:05:37;;;;;;;15.63;5.45;;;;;;;17.76;100.00;100808.69;6280412;22;20012;-86
2023/10/03 05:08:05;;;;;;;15.20;6.18;;;;;;;17.73;100.00;100796.19;6280383;22;20017;-87
2023/10/03 05:10:35;;;;;;;11.48;5.20;;;;;;;17.69;100.00;100819.94;6280184;22;20048;-85
2023/10/03 05:13:05;;;;;;;14.73;5.53;;;;;;;17.65;100.00;100812.09;6280563;22;20449;-84
2023/10/03 05:15:31;;;;;;;8.88;5.03;;;;;;;17.62;100.00;100819.16;6278388;22;20022;-84
2023/10/03 05:17:58;;;;;;;11.90;5.38;;;;;;;17.62;100.00;100823.78;6280275;22;20493;-83
2023/10/03 05:20:34;;;;;;;12.95;5.05;;;;;;;17.61;100.00;100823.06;6279088;22;20334;-85
2023/10/03 05:23:03;;;;;;;14.70;4.50;;;;;;;17.57;100.00;100824.53;6278748;22;20103;-85
2023/10/03 05:25:36;;;;;;;9.32;4.60;;;;;;;17.56;99.98;100834.56;6279708;22;20016;-85
2023/10/03 05:28:05;;;;;;;11.73;4.78;;;;;;;17.55;99.32;100846.56;6278755;22;20027;-85
2023/10/03 05:30:34;;;;;;;12.90;4.68;;;;;;;17.56;99.51;100856.09;6279734;22;20074;-85
2023/10/03 05:33:00;;;;;;;15.07;4.18;;;;;;;17.54;99.06;100845.09;6280320;22;20465;-84
2023/10/03 05:35:27;;;;;;;12.68;4.28;;;;;;;17.53;98.25;100827.47;6278693;22;20071;-84
2023/10/03 05:37:55;;;;;;;7.53;3.85;;;;;;;17.52;97.98;100827.94;6280080;22;20027;-83
2023/10/03 05:40:22;;;;;;;5.53;4.00;;;;;;;17.52;97.52;100838.72;6279402;22;20013;-84
2023/10/03 05:42:49;;;;;;;9.43;4.15;;;;;;;17.51;97.69;100826.47;6278291;22;20021;-83
2023/10/03 05:45:17;;;;;;;11.60;3.90;;;;;;;17.50;97.69;100846.53;6280125;22;20016;-85
2023/10/03 05:47:45;;;;;;;8.25;4.07;;;;;;;17.51;97.42;100846.06;6281329;22;20099;-84
2023/10/03 05:50:20;;;;;;;10.70;3.85;;;;;;;17.50;96.92;100844.59;6279074;22;20346;-84
2023/10/03 05:52:48;;;;;;;10.18;4.32;;;;;;;17.49;97.34;100851.19;6280050;22;20020;-83
2023/10/03 05:55:15;;;;;;;6.88;3.92;;;;;;;17.48;97.62;100863.16;6281135;22;20043;-84
2023/10/03 05:57:42;;;;;;;8.65;3.90;;;;;;;17.48;96.87;100876.63;6281060;22;20087;-84
2023/10/03 06:00:13;;;;;;;9.02;3.88;;;;;;;17.49;97.24;100874.66;6280937;22;20115;-85
2023/10/03 06:02:39;;;;;;;10.60;3.80;;;;;;;17.48;97.45;100876.63;6280915;22;20023;-85
2023/10/03 06:05:07;;;;;;;6.95;3.20;;;;;;;17.49;97.21;100875.41;6282248;22;20012;-86
2023/10/03 06:07:36;;;;;;;7.15;3.58;;;;;;;17.49;97.30;100877.34;6284476;22;20477;-90
2023/10/03 06:10:04;;;;;;;6.53;3.78;;;;;;;17.51;97.49;100866.84;6282996;22;20023;-91
2023/10/03 06:12:34;;;;;;;12.00;3.30;;;;;;;17.52;97.37;100893.28;6282062;22;20405;-89
2023/10/03 06:15:00;;;;;;;9.88;4.18;;;;;;;17.53;97.60;100881.28;6284165;22;20012;-90
2023/10/03 06:17:27;;;;;;;6.57;3.72;;;;;;;17.53;97.73;100884.00;6285124;22;20012;-86
2023/10/03 06:19:54;;;;;;;11.05;4.38;;;;;;;17.55;97.80;100888.88;6283324;22;20020;-91
2023/10/03 06:22:20;;;;;;;10.18;4.07;;;;;;;17.54;97.25;100879.34;6283183;22;20012;-90
2023/10/03 06:24:47;;;;;;;7.07;4.00;;;;;;;17.55;97.45;100870.03;6286141;22;20005;-85
2023/10/03 06:27:14;;;;;;;10.35;3.72;;;;;;;17.54;97.08;100893.53;6280966;22;20024;-87
2023/10/03 06:29:41;;;;;;;4.85;3.75;;;;;;;17.56;97.88;100903.81;6281755;22;20039;-87
2023/10/03 06:32:10;;;;;;;5.63;3.58;;;;;;;17.57;97.81;100892.56;6283710;22;20794;-87
2023/10/03 06:34:38;;;;;;;7.53;3.40;;;;;;;17.60;97.66;100901.59;6255632;22;20016;-91
2023/10/03 06:37:04;;;;;;;10.05;3.78;;;;;;;17.61;97.66;100903.81;6257283;22;20023;-87
2023/10/03 06:39:31;;;;;;;9.30;3.70;;;;;;;17.61;97.46;100922.66;6281665;22;20446;-87
2023/10/03 06:41:58;;;;;;;9.88;4.05;;;;;;;17.62;97.86;100931.47;6280655;22;20099;-88
2023/10/03 06:44:27;;;;;;;8.50;4.10;;;;;;;17.64;98.27;100926.34;6278921;22;20020;-88
2023/10/03 06:46:53;;;;;;;7.95;3.67;;;;;;;17.66;98.00;100935.44;6282160;22;20024;-94
2023/10/03 06:49:22;;;;;;;7.50;3.40;;;;;;;17.69;97.55;100931.03;6280779;22;20012;-87
2023/10/03 06:51:56;;;;;;;8.23;3.28;;;;;;;17.73;97.24;100930.81;6279972;22;20047;-86
2023/10/03 06:54:24;;;;;;;9.60;3.58;;;;;;;17.76;97.20;100940.63;6281079;22;20485;-86
2023/10/03 06:56:51;;;;;;;8.07;3.13;;;;;;;17.76;96.08;100957.50;6279719;22;20020;-86
2023/10/03 06:59:17;;;;;;;4.43;2.58;;;;;;;17.76;95.96;100943.31;6280839;22;20159;-83
2023/10/03 07:01:44;;;;;;;6.50;2.70;;;;;;;17.74;95.59;100943.78;6280732;22;20016;-95
2023/10/03 07:04:10;;;;;;;7.60;2.67;;;;;;;17.74;95.57;100941.09;6281457;22;20012;-87
2023/10/03 07:06:38;;;;;;;4.25;2.70;;;;;;;17.75;94.64;100950.66;6281914;22;20365;-91
2023/10/03 07:09:08;;;;;;;8.75;2.47;;;;;;;17.77;95.09;100963.63;6282172;22;20013;-92
2023/10/03 07:11:35;;;;;;;5.00;2.33;;;;;;;17.75;94.79;100966.81;6284510;22;20023;-93
2023/10/03 07:14:02;;;;;;;7.30;2.30;;;;;;;17.74;95.01;100981.47;6284447;22;20012;-91
2023/10/03 07:16:36;;;;;;;4.75;2.60;;;;;;;17.75;95.18;100987.59;6283864;22;20020;-95
2023/10/03 07:19:04;;;;;;;5.43;2.38;;;;;;;17.71;95.24;100993.22;6284452;22;20027;-87
2023/10/03 07:21:34;;;;;;;5.90;2.33;;;;;;;17.72;95.22;101004.72;6283965;22;20091;-94
2023/10/03 07:24:01;;;;;;;4.90;2.60;;;;;;;17.72;94.90;101008.16;6282274;22;20505;-89
2023/10/03 07:26:28;;;;;;;5.57;2.17;;;;;;;17.78;95.30;101013.56;6281233;22;20016;-89
2023/10/03 07:28:58;;;;;;;6.03;2.30;;;;;;;17.76;94.98;101016.75;6283008;22;20012;-93
2023/10/03 07:31:25;;;;;;;4.38;2.03;;;;;;;17.72;94.80;101000.06;6279691;22;20521;-84
2023/10/03 07:33:52;;;;;;;7.25;1.90;;;;;;;17.70;95.21;101013.28;6282656;22;20450;-86
2023/10/03 07:36:20;;;;;;;4.88;2.00;;;;;;;17.71;96.28;101024.78;6280827;22;20017;-84
2023/10/03 07:38:46;;;;;;;6.15;2.00;;;;;;;17.71;96.61;101012.06;6279623;22;20458;-85
2023/10/03 07:41:13;;;;;;;5.05;1.80;;;;;;;17.65;97.05;101012.03;6280956;22;20012;-84
2023/10/03 07:43:41;;;;;;;6.10;2.00;;;;;;;17.63;97.33;101006.34;6280855;22;20012;-83
2023/10/03 07:46:07;;;;;;;2.72;1.70;;;;;;;17.64;97.71;100993.63;6279955;22;20379;-79
2023/10/03 07:48:34;;;;;;;3.35;1.67;;;;;;;17.65;97.81;101011.28;6280719;22;20012;-87
2023/10/03 07:51:05;;;;;;;2.95;1.70;;;;;;;17.61;98.06;101029.59;6280209;22;20051;-86
2023/10/03 07:53:31;;;;;;;6.65;2.08;;;;;;;17.60;97.99;101036.94;6281406;22;20012;-89
2023/10/03 07:55:59;;;;;;;8.43;2.20;;;;;;;17.55;98.70;101048.44;6282049;22;20523;-87
2023/10/03 07:58:32;;;;;;;4.90;2.25;;;;;;;17.51;100.00;101066.75;6253036;22;20326;-83
2023/10/03 08:00:59;;;;;;;4.22;1.70;;;;;;;17.36;100.00;101076.91;6280374;22;20464;-85
2023/10/03 08:03:28;;;;;;;4.30;1.50;;;;;;;17.19;100.00;101106.38;6280147;22;20465;-85
2023/10/03 08:05:57;;;;;;;2.08;1.08;;;;;;;17.13;100.00;101112.91;6282489;22;20020;-87
2023/10/03 08:08:25;;;;;;;2.33;1.20;;;;;;;17.12;100.00;101122.94;6279930;22;20012;-86
2023/10/03 08:10:51;;;;;;;5.57;1.13;;;;;;;17.05;100.00;101123.34;6279243;22;20035;-84
2023/10/03 08:13:18;;;;;;;3.42;1.25;;;;;;;17.09;100.00;101123.88;6278789;22;20109;-81
2023/10/03 08:15:46;;;;;;;2.95;1.30;;;;;;;17.10;100.00;101119.25;6280494;22;20474;-80
2023/10/03 08:18:18;;;;;;;1.25;1.10;;;;;;;17.06;100.00;101138.28;6279237;22;20027;-84
2023/10/03 08:20:53;;;;;;;5.75;1.55;;;;;;;17.04;100.00;101159.53;6279189;22;20020;-79
2023/10/03 08:23:23;;;;;;;4.30;1.20;;;;;;;16.97;100.00;101159.94;6277936;22;20056;-80
2023/10/03 08:25:50;;;;;;;5.47;1.33;;;;;;;16.92;100.00;101160.63;6253209;22;20024;-82
2023/10/03 08:28:20;;;;;;;3.42;1.55;;;;;;;16.82;100.00;101168.09;6278537;22;20086;-82
2023/10/03 08:30:50;;;;;;;2.67;1.38;;;;;;;16.74;100.00;101185.13;6281076;22;20016;-88
2023/10/03 08:33:16;;;;;;;5.28;1.27;;;;;;;16.66;100.00;101192.84;6284499;22;20022;-88
2023/10/03 08:35:46;;;;;;;3.40;1.20;;;;;;;16.61;100.00;101204.97;6282853;22;20020;-92
2023/10/03 08:38:13;;;;;;;2.17;0.82;;;;;;;16.48;100.00;101198.44;6257178;22;20022;-89
2023/10/03 08:40:50;;;;;;;2.95;0.80;;;;;;;16.42;100.00;101192.25;6283373;22;20087;-89
2023/10/03 08:43:25;;;;;;;2.90;0.82;;;;;;;16.43;100.00;101207.91;6279989;22;20022;-89
2023/10/03 08:45:57;;;;;;;4.63;0.98;;;;;;;16.52;100.00;101204.34;6282023;22;20020;-91
2023/10/03 08:48:29;;;;;;;3.13;0.93;;;;;;;16.52;100.00;101215.09;6280374;22;20022;-89
2023/10/03 08:50:58;;;;;;;0.80;0.77;;;;;;;16.53;100.00;101230.03;6282329;22;20016;-89
2023/10/03 08:53:28;;;;;;;3.00;1.08;;;;;;;16.60;100.00;101243.06;6280944;22;20012;-92
2023/10/03 08:55:59;;;;;;;4.22;1.00;;;;;;;16.63;100.00;101253.63;6282858;22;20482;-92
2023/10/03 08:58:26;;;;;;;4.07;1.00;;;;;;;16.64;100.00;101251.72;6280244;22;20020;-90
2023/10/03 09:01:03;;;;;;;1.83;1.20;;;;;;;16.70;100.00;101260.59;6279942;22;20016;-88
2023/10/03 09:03:47;;;;;;;5.07;1.20;;;;;;;16.75;100.00;101257.25;6280871;22;20019;-86
2023/10/03 09:06:19;;;;;;;2.42;0.93;;;;;;;16.80;100.00;101269.25;6281178;22;20016;-90
2023/10/03 09:08:51;;;;;;;4.20;1.10;;;;;;;16.81;100.00;101268.78;6280442;22;20020;-90
2023/10/03 09:11:19;;;;;;;4.25;0.98;;;;;;;16.79;100.00;101273.91;6279538;22;20756;-90
2023/10/03 09:13:49;;;;;;;2.67;0.90;;;;;;;16.76;100.00;101293.66;6280974;22;20026;-90
2023/10/03 09:16:16;;;;;;;2.97;1.13;;;;;;;16.69;99.72;101307.50;6281055;22;20425;-87
2023/10/03 09:18:50;;;;;;;1.75;0.63;;;;;;;16.62;100.00;101315.91;6280880;22;20048;-88
2023/10/03 09:21:23;;;;;;;4.60;0.98;;;;;;;16.61;100.00;101311.75;6281637;22;20016;-89
2023/10/03 09:24:01;;;;;;;6.78;0.90;;;;;;;16.67;100.00;101310.66;6284016;22;20012;-87
2023/10/03 09:26:51;;;;;;;1.63;0.65;;;;;;;16.71;100.00;101307.03;6283477;22;20024;-92
2023/10/03 09:29:29;;;;;;;4.00;0.90;;;;;;;16.75;100.00;101324.44;6281708;22;20087;-89
2023/10/03 09:31:59;;;;;;;1.77;0.85;;;;;;;16.75;99.23;101326.41;6280634;22;20472;-88
2023/10/03 09:34:30;;;;;;;3.80;0.70;;;;;;;16.71;99.45;101326.59;6281211;22;20016;-86
2023/10/03 09:37:02;;;;;;;2.33;0.57;;;;;;;16.76;99.19;101338.63;6282433;22;20020;-82
2023/10/03 09:39:30;;;;;;;1.65;0.93;;;;;;;16.79;97.55;101333.06;6286475;22;20012;-90
2023/10/03 09:41:59;;;;;;;1.45;0.50;;;;;;;16.82;98.21;101334.78;6281643;22;20012;-90
2023/10/03 09:44:32;;;;;;;2.33;0.70;;;;;;;16.82;97.33;101342.84;6285660;22;20036;-88
2023/10/03 09:47:06;;;;;;;2.47;1.00;;;;;;;16.74;97.68;101365.25;6282111;22;20411;-80
2023/10/03 09:49:39;;;;;;;1.17;0.70;;;;;;;16.61;97.28;101366.25;6279897;22;20019;-78
2023/10/03 09:52:09;;;;;;;1.95;0.80;;;;;;;16.57;96.64;101367.63;6281538;22;20039;-78
2023/10/03 09:54:36;;;;;;;1.08;0.57;;;;;;;16.46;97.30;101386.25;6305491;22;20019;-76
2023/10/03 09:57:15;;;;;;;2.47;0.70;;;;;;;16.47;98.01;101391.19;6280869;22;20454;-78
2023/10/03 09:59:45;;;;;;;1.00;0.80;;;;;;;16.43;96.21;101406.75;6279623;22;20024;-78
2023/10/03 10:02:14;;;;;;;3.90;0.93;;;;;;;16.37;96.04;101405.19;6279649;22;20103;-79
2023/10/03 10:04:45;;;;;;;5.88;1.20;;;;;;;16.28;97.81;101401.38;6279056;22;20055;-81
2023/10/03 10:07:35;;;;;;;9.38;1.40;;;;;;;16.31;97.55;101408.53;6281054;22;20036;-77
2023/10/03 10:10:07;;;;;;;2.90;1.13;;;;;;;16.33;98.16;101411.50;6281624;22;20016;-78
2023/10/03 10:12:42;;;;;;;3.38;1.05;;;;;;;16.40;98.07;101404.97;6253823;22;20016;-84
2023/10/03 10:17:51;;;;;;;3.83;1.13;;;;;;;16.55;97.08;101415.72;6281636;22;20258;-84
2023/10/03 10:20:38;;;;;;;1.92;0.90;;;;;;;16.62;97.12;101404.63;6280813;22;20035;-83
2023/10/03 10:25:43;;;;;;;1.90;0.90;;;;;;;16.77;94.81;101426.88;6281672;22;20016;-92
2023/10/03 10:28:32;;;;;;;6.00;1.15;;;;;;;16.80;94.78;101425.94;6256697;22;20462;-85
2023/10/03 10:31:11;;;;;;;2.70;0.77;;;;;;;16.92;95.60;101424.16;6279623;22;20078;-84
2023/10/03 10:33:37;;;;;;;5.07;0.65;;;;;;;16.89;93.97;101441.97;6279095;22;20043;-84
2023/10/03 10:36:10;;;;;;;2.03;0.70;;;;;;;16.85;93.25;101440.66;6279401;22;20016;-85
2023/10/03 10:38:37;;;;;;;1.20;0.77;;;;;;;16.87;94.02;101446.31;6279187;22;20052;-86
2023/10/03 10:41:17;;;;;;;2.03;0.80;;;;;;;16.83;94.78;101453.84;6253303;22;20020;-82
2023/10/03 10:44:05;;;;;;;2.78;0.77;;;;;;;16.81;95.31;101456.97;6281943;22;20354;-85
2023/10/03 10:46:33;;;;;;;2.33;0.57;;;;;;;16.89;94.86;101454.66;6281566;22;20446;-90
2023/10/03 10:48:59;;;;;;;4.60;1.00;;;;;;;16.87;94.46;101467.84;6281724;22;20023;-84
2023/10/03 10:51:26;;;;;;;1.77;0.68;;;;;;;16.71;94.38;101465.63;6278802;22;20336;-86
2023/10/03 10:53:53;;;;;;;4.65;1.08;;;;;;;16.78;96.96;101471.38;6253451;22;20069;-84
2023/10/03 10:56:22;;;;;;;2.25;0.82;;;;;;;16.85;94.40;101472.94;6278884;22;20024;-85
2023/10/03 10:58:51;;;;;;;2.95;1.10;;;;;;;16.70;94.99;101488.34;6280376;22;20031;-87
2023/10/03 11:01:21;;;;;;;2.35;1.23;;;;;;;16.68;95.36;101488.81;6279881;22;20450;-88
2023/10/03 11:03:49;;;;;;;3.53;1.05;;;;;;;16.63;96.26;101484.78;6282177;22;20019;-88
2023/10/03 11:06:18;;;;;;;3.67;1.15;;;;;;;16.52;93.02;101491.91;6282602;22;20016;-91
2023/10/03 11:08:49;;;;;;;2.90;1.30;;;;;;;16.42;94.25;101498.56;6285919;22;20717;-89
2023/10/03 11:11:17;;;;;;;4.15;1.20;;;;;;;16.38;94.62;101504.16;6294401;22;20012;-94
2023/10/03 11:13:45;;;;;;;4.05;1.10;;;;;;;16.38;94.33;101503.41;6284263;22;20015;-93
2023/10/03 11:16:24;;;;;;;3.47;1.38;;;;;;;16.42;94.59;101503.94;6281691;22;20008;-94
2023/10/03 11:18:54;;;;;;;2.15;1.05;;;;;;;16.31;94.52;101507.19;6281762;22;20087;-93
2023/10/03 11:21:22;;;;;;;3.25;1.10;;;;;;;16.25;95.33;101515.13;6281751;22;20875;-93
2023/10/03 11:24:09;;;;;;;2.05;1.35;;;;;;;16.13;95.98;101521.50;6281765;22;20012;-92
2023/10/03 11:26:53;;;;;;;2.33;1.23;;;;;;;16.13;95.38;101526.84;6281984;22;20013;-93
2023/10/03 11:29:48;;;;;;;3.20;1.40;;;;;;;15.95;95.94;101529.69;6281750;22;19996;-91
2023/10/03 11:32:29;;;;;;;1.40;1.17;;;;;;;15.83;96.36;101544.81;6305940;22;20012;-92